sensor_id;sensor_type;location;lat;lon;timestamp;temperature;humidity
21612;DHT22;47005;52.292;13.452;2023-02-25T00:01:53;5.80;99.90
21612;DHT22;47005;52.292;13.452;2023-02-25T00:04:20;5.80;99.90
21612;DHT22;47005;52.292;13.452;2023-02-25T00:06:46;5.80;99.90
21612;DHT22;47005;52.292;13.452;2023-02-25T00:09:12;5.80;99.90
21612;DHT22;47005;52.292;13.452;2023-02-25T00:11:37;5.80;99.90
21612;DHT22;47005;52.292;13.452;2023-02-25T00:14:03;5.80;99.90
21612;DHT22;47005;52.292;13.452;2023-02-25T00:16:29;5.80;99.90
21612;DHT22;47005;52.292;13.452;2023-02-25T00:18:57;5.80;99.90
21612;DHT22;47005;52.292;13.452;2023-02-25T00:21:23;5.80;99.90
21612;DHT22;47005;52.292;13.452;2023-02-25T00:23:50;5.80;99.90
21612;DHT22;47005;52.292;13.452;2023-02-25T00:26:18;5.80;99.90
21612;DHT22;47005;52.292;13.452;2023-02-25T00:28:44;5.80;99.90
21612;DHT22;47005;52.292;13.452;2023-02-25T00:31:13;5.70;99.90
21612;DHT22;47005;52.292;13.452;2023-02-25T00:33:40;5.70;99.90
21612;DHT22;47005;52.292;13.452;2023-02-25T00:36:15;5.70;99.90
21612;DHT22;47005;52.292;13.452;2023-02-25T00:38:43;5.70;99.90
21612;DHT22;47005;52.292;13.452;2023-02-25T00:41:13;5.70;99.90
21612;DHT22;47005;52.292;13.452;2023-02-25T00:43:42;5.70;99.90
21612;DHT22;47005;52.292;13.452;2023-02-25T00:46:09;5.70;99.90
21612;DHT22;47005;52.292;13.452;2023-02-25T00:48:36;5.70;99.90
21612;DHT22;47005;52.292;13.452;2023-02-25T00:51:10;5.70;99.90
21612;DHT22;47005;52.292;13.452;2023-02-25T00:53:36;5.70;99.90
21612;DHT22;47005;52.292;13.452;2023-02-25T00:56:03;5.60;99.90
21612;DHT22;47005;52.292;13.452;2023-02-25T00:58:28;5.60;99.90
21612;DHT22;47005;52.292;13.452;2023-02-25T01:00:54;5.70;99.90
21612;DHT22;47005;52.292;13.452;2023-02-25T01:03:20;5.70;99.90
21612;DHT22;47005;52.292;13.452;2023-02-25T01:05:46;5.70;99.90
21612;DHT22;47005;52.292;13.452;2023-02-25T01:08:16;5.70;99.90
21612;DHT22;47005;52.292;13.452;2023-02-25T01:10:42;5.70;99.90
21612;DHT22;47005;52.292;13.452;2023-02-25T01:13:08;5.70;99.90
21612;DHT22;47005;52.292;13.452;2023-02-25T01:15:34;5.70;99.90
21612;DHT22;47005;52.292;13.452;2023-02-25T01:17:59;5.70;99.90
21612;DHT22;47005;52.292;13.452;2023-02-25T01:20:25;5.60;99.90
21612;DHT22;47005;52.292;13.452;2023-02-25T01:22:50;5.60;99.90
21612;DHT22;47005;52.292;13.452;2023-02-25T01:25:16;5.50;99.90
21612;DHT22;47005;52.292;13.452;2023-02-25T01:27:43;5.60;99.90
21612;DHT22;47005;52.292;13.452;2023-02-25T01:30:09;5.50;99.90
21612;DHT22;47005;52.292;13.452;2023-02-25T01:32:36;5.50;99.90
21612;DHT22;47005;52.292;13.452;2023-02-25T01:35:02;5.60;99.90
21612;DHT22;47005;52.292;13.452;2023-02-25T01:37:28;5.50;99.90
21612;DHT22;47005;52.292;13.452;2023-02-25T01:39:53;5.50;99.90
21612;DHT22;47005;52.292;13.452;2023-02-25T01:42:19;5.50;99.90
21612;DHT22;47005;52.292;13.452;2023-02-25T01:47:39;5.40;99.90
21612;DHT22;47005;52.292;13.452;2023-02-25T01:50:06;5.40;99.90
21612;DHT22;47005;52.292;13.452;2023-02-25T01:52:32;5.40;99.90
21612;DHT22;47005;52.292;13.452;2023-02-25T01:54:58;5.40;99.90
21612;DHT22;47005;52.292;13.452;2023-02-25T01:57:24;5.40;99.90
21612;DHT22;47005;52.292;13.452;2023-02-25T01:59:52;5.40;99.90
21612;DHT22;47005;52.292;13.452;2023-02-25T02:02:20;5.40;99.90
21612;DHT22;47005;52.292;13.452;2023-02-25T02:04:47;5.40;99.90
21612;DHT22;47005;52.292;13.452;2023-02-25T02:07:17;5.40;99.90
21612;DHT22;47005;52.292;13.452;2023-02-25T02:09:43;5.40;99.90
21612;DHT22;47005;52.292;13.452;2023-02-25T02:12:36;5.40;99.90
21612;DHT22;47005;52.292;13.452;2023-02-25T02:15:06;5.40;99.90
21612;DHT22;47005;52.292;13.452;2023-02-25T02:22:58;5.40;99.90
21612;DHT22;47005;52.292;13.452;2023-02-25T02:34:34;5.30;99.90
21612;DHT22;47005;52.292;13.452;2023-02-25T02:48:01;5.30;99.90
21612;DHT22;47005;52.292;13.452;2023-02-25T02:51:00;5.30;99.90
21612;DHT22;47005;52.292;13.452;2023-02-25T02:53:37;5.30;99.90
21612;DHT22;47005;52.292;13.452;2023-02-25T02:56:06;5.30;99.90
21612;DHT22;47005;52.292;13.452;2023-02-25T02:58:42;5.30;99.90
21612;DHT22;47005;52.292;13.452;2023-02-25T03:01:37;5.30;99.90
21612;DHT22;47005;52.292;13.452;2023-02-25T03:04:08;5.30;99.90
21612;DHT22;47005;52.292;13.452;2023-02-25T03:06:40;5.30;99.90
21612;DHT22;47005;52.292;13.452;2023-02-25T03:09:20;5.30;99.90
21612;DHT22;47005;52.292;13.452;2023-02-25T03:11:47;5.30;99.90
21612;DHT22;47005;52.292;13.452;2023-02-25T03:14:13;5.30;99.90
21612;DHT22;47005;52.292;13.452;2023-02-25T03:19:30;5.30;99.90
21612;DHT22;47005;52.292;13.452;2023-02-25T03:22:17;5.40;99.90
21612;DHT22;47005;52.292;13.452;2023-02-25T03:25:15;5.30;99.90
21612;DHT22;47005;52.292;13.452;2023-02-25T03:27:41;5.30;99.90
21612;DHT22;47005;52.292;13.452;2023-02-25T03:33:20;5.30;99.90
21612;DHT22;47005;52.292;13.452;2023-02-25T03:35:47;5.30;99.90
21612;DHT22;47005;52.292;13.452;2023-02-25T03:38:18;5.30;99.90
21612;DHT22;47005;52.292;13.452;2023-02-25T03:40:47;5.20;99.90
21612;DHT22;47005;52.292;13.452;2023-02-25T03:43:23;5.20;99.90
21612;DHT22;47005;52.292;13.452;2023-02-25T03:45:51;5.20;99.90
21612;DHT22;47005;52.292;13.452;2023-02-25T03:48:18;5.20;99.90
21612;DHT22;47005;52.292;13.452;2023-02-25T03:50:48;5.20;99.90
21612;DHT22;47005;52.292;13.452;2023-02-25T03:53:16;5.20;99.90
21612;DHT22;47005;52.292;13.452;2023-02-25T03:55:42;5.20;99.90
21612;DHT22;47005;52.292;13.452;2023-02-25T03:58:08;5.20;99.90
21612;DHT22;47005;52.292;13.452;2023-02-25T04:00:34;5.20;99.90
21612;DHT22;47005;52.292;13.452;2023-02-25T04:03:00;5.20;99.90
21612;DHT22;47005;52.292;13.452;2023-02-25T04:05:26;5.20;99.90
21612;DHT22;47005;52.292;13.452;2023-02-25T04:07:53;5.20;99.90
21612;DHT22;47005;52.292;13.452;2023-02-25T04:10:20;5.30;99.90
21612;DHT22;47005;52.292;13.452;2023-02-25T04:12:46;5.20;99.90
21612;DHT22;47005;52.292;13.452;2023-02-25T04:15:11;5.20;99.90
21612;DHT22;47005;52.292;13.452;2023-02-25T04:17:39;5.20;99.90
21612;DHT22;47005;52.292;13.452;2023-02-25T04:20:05;5.20;99.90
21612;DHT22;47005;52.292;13.452;2023-02-25T04:22:31;5.20;99.90
21612;DHT22;47005;52.292;13.452;2023-02-25T04:24:57;5.20;99.90
21612;DHT22;47005;52.292;13.452;2023-02-25T04:27:23;5.10;99.90
21612;DHT22;47005;52.292;13.452;2023-02-25T04:29:49;5.10;99.90
21612;DHT22;47005;52.292;13.452;2023-02-25T04:32:15;5.10;99.90
21612;DHT22;47005;52.292;13.452;2023-02-25T04:34:40;5.10;99.90
21612;DHT22;47005;52.292;13.452;2023-02-25T04:37:06;5.00;99.90
21612;DHT22;47005;52.292;13.452;2023-02-25T04:39:33;5.00;99.90
21612;DHT22;47005;52.292;13.452;2023-02-25T04:41:59;5.00;99.90
21612;DHT22;47005;52.292;13.452;2023-02-25T04:44:25;5.00;99.90
21612;DHT22;47005;52.292;13.452;2023-02-25T04:46:51;5.00;99.90
21612;DHT22;47005;52.292;13.452;2023-02-25T04:49:20;4.90;99.90
21612;DHT22;47005;52.292;13.452;2023-02-25T04:51:47;4.90;99.90
21612;DHT22;47005;52.292;13.452;2023-02-25T04:54:14;4.90;99.90
21612;DHT22;47005;52.292;13.452;2023-02-25T04:56:40;4.90;99.90
21612;DHT22;47005;52.292;13.452;2023-02-25T04:59:06;4.90;99.90
21612;DHT22;47005;52.292;13.452;2023-02-25T05:01:32;4.80;99.90
21612;DHT22;47005;52.292;13.452;2023-02-25T05:03:58;4.80;99.90
21612;DHT22;47005;52.292;13.452;2023-02-25T05:06:26;4.80;99.90
21612;DHT22;47005;52.292;13.452;2023-02-25T05:08:52;4.80;99.90
21612;DHT22;47005;52.292;13.452;2023-02-25T05:11:19;4.80;99.90
21612;DHT22;47005;52.292;13.452;2023-02-25T05:13:46;4.80;99.90
21612;DHT22;47005;52.292;13.452;2023-02-25T05:16:13;4.80;99.90
21612;DHT22;47005;52.292;13.452;2023-02-25T05:18:44;4.70;99.90
21612;DHT22;47005;52.292;13.452;2023-02-25T05:21:16;4.70;99.90
21612;DHT22;47005;52.292;13.452;2023-02-25T05:23:43;4.70;99.90
21612;DHT22;47005;52.292;13.452;2023-02-25T05:26:10;4.70;99.90
21612;DHT22;47005;52.292;13.452;2023-02-25T05:28:36;4.70;99.90
21612;DHT22;47005;52.292;13.452;2023-02-25T05:31:10;4.70;99.90
21612;DHT22;47005;52.292;13.452;2023-02-25T05:33:38;4.70;99.90
21612;DHT22;47005;52.292;13.452;2023-02-25T05:36:08;4.60;99.90
21612;DHT22;47005;52.292;13.452;2023-02-25T05:38:35;4.60;99.90
21612;DHT22;47005;52.292;13.452;2023-02-25T05:41:01;4.60;99.90
21612;DHT22;47005;52.292;13.452;2023-02-25T05:43:27;4.60;99.90
21612;DHT22;47005;52.292;13.452;2023-02-25T05:45:58;4.60;99.90
21612;DHT22;47005;52.292;13.452;2023-02-25T05:48:24;4.60;99.90
21612;DHT22;47005;52.292;13.452;2023-02-25T05:50:50;4.60;99.90
21612;DHT22;47005;52.292;13.452;2023-02-25T05:53:17;4.50;99.90
21612;DHT22;47005;52.292;13.452;2023-02-25T05:55:43;4.50;99.90
21612;DHT22;47005;52.292;13.452;2023-02-25T05:58:10;4.70;99.90
21612;DHT22;47005;52.292;13.452;2023-02-25T06:00:36;4.50;99.90
21612;DHT22;47005;52.292;13.452;2023-02-25T06:03:03;4.50;99.90
21612;DHT22;47005;52.292;13.452;2023-02-25T06:05:29;4.60;99.90
21612;DHT22;47005;52.292;13.452;2023-02-25T06:07:56;4.50;99.90
21612;DHT22;47005;52.292;13.452;2023-02-25T06:10:22;4.50;99.90
21612;DHT22;47005;52.292;13.452;2023-02-25T06:12:48;4.50;99.90
21612;DHT22;47005;52.292;13.452;2023-02-25T06:15:13;4.50;99.90
21612;DHT22;47005;52.292;13.452;2023-02-25T06:17:39;4.50;99.90
21612;DHT22;47005;52.292;13.452;2023-02-25T06:20:05;4.50;99.90
21612;DHT22;47005;52.292;13.452;2023-02-25T06:22:32;4.50;99.90
21612;DHT22;47005;52.292;13.452;2023-02-25T06:24:58;4.50;99.90
21612;DHT22;47005;52.292;13.452;2023-02-25T06:27:23;4.40;99.90
21612;DHT22;47005;52.292;13.452;2023-02-25T06:29:49;4.40;99.90
21612;DHT22;47005;52.292;13.452;2023-02-25T06:32:15;4.30;99.90
21612;DHT22;47005;52.292;13.452;2023-02-25T06:34:41;4.30;99.90
21612;DHT22;47005;52.292;13.452;2023-02-25T06:37:07;4.30;99.90
21612;DHT22;47005;52.292;13.452;2023-02-25T06:39:33;4.20;99.90
21612;DHT22;47005;52.292;13.452;2023-02-25T06:41:59;4.20;99.90
21612;DHT22;47005;52.292;13.452;2023-02-25T06:44:25;4.20;99.90
21612;DHT22;47005;52.292;13.452;2023-02-25T06:46:52;4.30;99.90
21612;DHT22;47005;52.292;13.452;2023-02-25T06:49:22;4.20;99.90
21612;DHT22;47005;52.292;13.452;2023-02-25T06:51:48;4.30;99.90
21612;DHT22;47005;52.292;13.452;2023-02-25T06:54:17;4.30;99.90
21612;DHT22;47005;52.292;13.452;2023-02-25T06:56:43;4.20;99.90
21612;DHT22;47005;52.292;13.452;2023-02-25T06:59:09;4.20;99.90
21612;DHT22;47005;52.292;13.452;2023-02-25T07:01:35;4.20;99.90
21612;DHT22;47005;52.292;13.452;2023-02-25T07:04:02;4.20;99.90
21612;DHT22;47005;52.292;13.452;2023-02-25T07:06:28;4.20;99.90
21612;DHT22;47005;52.292;13.452;2023-02-25T07:08:53;4.20;99.90
21612;DHT22;47005;52.292;13.452;2023-02-25T07:13:49;4.20;99.90
21612;DHT22;47005;52.292;13.452;2023-02-25T07:16:16;4.20;99.90
21612;DHT22;47005;52.292;13.452;2023-02-25T07:18:42;4.20;99.90
21612;DHT22;47005;52.292;13.452;2023-02-25T07:21:08;4.20;99.90
21612;DHT22;47005;52.292;13.452;2023-02-25T07:23:34;4.20;99.90
21612;DHT22;47005;52.292;13.452;2023-02-25T07:26:04;4.20;99.90
21612;DHT22;47005;52.292;13.452;2023-02-25T07:28:31;4.20;99.90
21612;DHT22;47005;52.292;13.452;2023-02-25T07:31:00;4.20;99.90
21612;DHT22;47005;52.292;13.452;2023-02-25T07:33:27;4.20;99.90
21612;DHT22;47005;52.292;13.452;2023-02-25T07:35:53;4.20;99.90
21612;DHT22;47005;52.292;13.452;2023-02-25T07:38:19;4.20;99.90
21612;DHT22;47005;52.292;13.452;2023-02-25T07:40:45;4.30;99.90
21612;DHT22;47005;52.292;13.452;2023-02-25T07:43:10;4.30;99.90
21612;DHT22;47005;52.292;13.452;2023-02-25T07:45:36;4.30;99.90
21612;DHT22;47005;52.292;13.452;2023-02-25T07:48:02;4.30;99.90
21612;DHT22;47005;52.292;13.452;2023-02-25T07:50:28;4.30;99.90
21612;DHT22;47005;52.292;13.452;2023-02-25T07:52:53;4.30;99.90
21612;DHT22;47005;52.292;13.452;2023-02-25T07:55:19;4.30;99.90
21612;DHT22;47005;52.292;13.452;2023-02-25T07:57:45;4.30;99.90
21612;DHT22;47005;52.292;13.452;2023-02-25T08:00:11;4.30;99.90
21612;DHT22;47005;52.292;13.452;2023-02-25T08:02:37;4.30;99.90
21612;DHT22;47005;52.292;13.452;2023-02-25T08:05:03;4.30;99.90
21612;DHT22;47005;52.292;13.452;2023-02-25T08:07:29;4.30;99.90
21612;DHT22;47005;52.292;13.452;2023-02-25T08:09:55;4.30;99.90
21612;DHT22;47005;52.292;13.452;2023-02-25T08:12:21;4.30;99.90
21612;DHT22;47005;52.292;13.452;2023-02-25T08:14:47;4.30;99.90
21612;DHT22;47005;52.292;13.452;2023-02-25T08:17:13;4.30;99.90
21612;DHT22;47005;52.292;13.452;2023-02-25T08:19:39;4.30;99.90
21612;DHT22;47005;52.292;13.452;2023-02-25T08:22:06;4.30;99.90
21612;DHT22;47005;52.292;13.452;2023-02-25T08:24:33;4.30;99.90
21612;DHT22;47005;52.292;13.452;2023-02-25T08:26:58;4.30;99.90
21612;DHT22;47005;52.292;13.452;2023-02-25T08:29:24;4.40;99.90
21612;DHT22;47005;52.292;13.452;2023-02-25T08:31:50;4.40;99.90
21612;DHT22;47005;52.292;13.452;2023-02-25T08:34:17;4.40;99.90
21612;DHT22;47005;52.292;13.452;2023-02-25T08:36:43;4.30;99.90
21612;DHT22;47005;52.292;13.452;2023-02-25T08:39:09;4.30;99.90
21612;DHT22;47005;52.292;13.452;2023-02-25T08:41:36;4.40;99.90
21612;DHT22;47005;52.292;13.452;2023-02-25T08:44:01;4.30;99.90
21612;DHT22;47005;52.292;13.452;2023-02-25T08:46:29;4.30;99.90
21612;DHT22;47005;52.292;13.452;2023-02-25T08:48:56;4.30;99.90
21612;DHT22;47005;52.292;13.452;2023-02-25T08:51:24;4.30;99.90
21612;DHT22;47005;52.292;13.452;2023-02-25T08:53:59;4.40;99.90
21612;DHT22;47005;52.292;13.452;2023-02-25T08:56:25;4.40;99.90
21612;DHT22;47005;52.292;13.452;2023-02-25T08:58:52;4.40;99.90
21612;DHT22;47005;52.292;13.452;2023-02-25T09:01:18;4.40;99.90
21612;DHT22;47005;52.292;13.452;2023-02-25T09:03:45;4.40;99.90
21612;DHT22;47005;52.292;13.452;2023-02-25T09:06:23;4.40;99.90
21612;DHT22;47005;52.292;13.452;2023-02-25T09:08:50;4.40;99.90
21612;DHT22;47005;52.292;13.452;2023-02-25T09:11:17;4.50;99.90
21612;DHT22;47005;52.292;13.452;2023-02-25T09:13:43;4.50;99.90
21612;DHT22;47005;52.292;13.452;2023-02-25T09:16:08;4.50;99.90
21612;DHT22;47005;52.292;13.452;2023-02-25T09:18:34;4.60;99.90
21612;DHT22;47005;52.292;13.452;2023-02-25T09:21:00;4.50;99.90
21612;DHT22;47005;52.292;13.452;2023-02-25T09:23:25;4.50;99.90
21612;DHT22;47005;52.292;13.452;2023-02-25T09:25:51;4.50;99.90
21612;DHT22;47005;52.292;13.452;2023-02-25T09:28:17;4.50;99.90
21612;DHT22;47005;52.292;13.452;2023-02-25T09:30:46;4.60;99.90
21612;DHT22;47005;52.292;13.452;2023-02-25T09:33:12;4.60;99.90
21612;DHT22;47005;52.292;13.452;2023-02-25T09:35:38;4.60;99.90
21612;DHT22;47005;52.292;13.452;2023-02-25T09:38:05;4.70;99.90
21612;DHT22;47005;52.292;13.452;2023-02-25T09:40:31;4.60;99.90
21612;DHT22;47005;52.292;13.452;2023-02-25T09:45:44;4.70;99.90
21612;DHT22;47005;52.292;13.452;2023-02-25T09:48:24;4.70;99.90
21612;DHT22;47005;52.292;13.452;2023-02-25T09:50:56;4.70;99.90
21612;DHT22;47005;52.292;13.452;2023-02-25T09:53:38;4.60;99.90
21612;DHT22;47005;52.292;13.452;2023-02-25T09:56:05;4.60;99.90
21612;DHT22;47005;52.292;13.452;2023-02-25T09:58:42;4.60;99.90
21612;DHT22;47005;52.292;13.452;2023-02-25T10:01:36;4.60;99.90
21612;DHT22;47005;52.292;13.452;2023-02-25T10:09:32;4.70;99.90
21612;DHT22;47005;52.292;13.452;2023-02-25T10:14:50;4.70;99.90
21612;DHT22;47005;52.292;13.452;2023-02-25T10:17:29;4.80;99.90
21612;DHT22;47005;52.292;13.452;2023-02-25T10:25:30;4.90;99.90
21612;DHT22;47005;52.292;13.452;2023-02-25T10:28:02;4.90;99.90
21612;DHT22;47005;52.292;13.452;2023-02-25T10:30:53;4.90;99.90
21612;DHT22;47005;52.292;13.452;2023-02-25T10:33:26;4.90;99.90
21612;DHT22;47005;52.292;13.452;2023-02-25T10:36:09;4.90;99.90
21612;DHT22;47005;52.292;13.452;2023-02-25T10:38:45;4.90;99.90
21612;DHT22;47005;52.292;13.452;2023-02-25T10:41:12;4.80;99.90
21612;DHT22;47005;52.292;13.452;2023-02-25T10:43:38;4.90;99.90
21612;DHT22;47005;52.292;13.452;2023-02-25T10:46:10;4.80;99.90
21612;DHT22;47005;52.292;13.452;2023-02-25T10:48:39;4.80;99.90
21612;DHT22;47005;52.292;13.452;2023-02-25T10:51:15;4.80;99.90
21612;DHT22;47005;52.292;13.452;2023-02-25T10:56:23;4.70;99.90
21612;DHT22;47005;52.292;13.452;2023-02-25T10:59:28;4.60;99.90
21612;DHT22;47005;52.292;13.452;2023-02-25T11:01:54;4.60;99.90
21612;DHT22;47005;52.292;13.452;2023-02-25T11:04:32;4.70;99.90
21612;DHT22;47005;52.292;13.452;2023-02-25T11:06:59;4.70;99.90
21612;DHT22;47005;52.292;13.452;2023-02-25T11:14:40;4.50;99.90
21612;DHT22;47005;52.292;13.452;2023-02-25T11:17:17;4.50;99.90
21612;DHT22;47005;52.292;13.452;2023-02-25T11:19:49;4.50;99.90
21612;DHT22;47005;52.292;13.452;2023-02-25T11:22:27;4.60;99.90
21612;DHT22;47005;52.292;13.452;2023-02-25T11:25:13;4.50;99.90
21612;DHT22;47005;52.292;13.452;2023-02-25T11:27:42;4.50;99.90
21612;DHT22;47005;52.292;13.452;2023-02-25T11:32:43;4.60;99.90
21612;DHT22;47005;52.292;13.452;2023-02-25T11:35:52;4.60;99.90
21612;DHT22;47005;52.292;13.452;2023-02-25T11:38:15;4.60;99.90
21612;DHT22;47005;52.292;13.452;2023-02-25T11:40:43;4.70;99.90
21612;DHT22;47005;52.292;13.452;2023-02-25T11:45:53;4.80;99.90
21612;DHT22;47005;52.292;13.452;2023-02-25T11:48:21;4.70;99.90
21612;DHT22;47005;52.292;13.452;2023-02-25T11:51:03;4.80;99.90
21612;DHT22;47005;52.292;13.452;2023-02-25T11:59:11;4.90;99.90
21612;DHT22;47005;52.292;13.452;2023-02-25T13:09:30;4.20;99.90
21612;DHT22;47005;52.292;13.452;2023-02-25T13:23:31;4.20;99.90
21612;DHT22;47005;52.292;13.452;2023-02-25T13:26:19;4.30;99.90
21612;DHT22;47005;52.292;13.452;2023-02-25T13:29:11;4.30;99.90
21612;DHT22;47005;52.292;13.452;2023-02-25T13:31:47;4.30;99.90
21612;DHT22;47005;52.292;13.452;2023-02-25T13:37:23;4.40;99.90
21612;DHT22;47005;52.292;13.452;2023-02-25T13:50:53;4.40;99.90
21612;DHT22;47005;52.292;13.452;2023-02-25T13:56:49;4.30;99.90
21612;DHT22;47005;52.292;13.452;2023-02-25T14:05:15;4.30;99.90
21612;DHT22;47005;52.292;13.452;2023-02-25T14:08:11;4.30;99.90
21612;DHT22;47005;52.292;13.452;2023-02-25T14:16:17;4.40;99.90
21612;DHT22;47005;52.292;13.452;2023-02-25T14:32:37;4.50;99.90
21612;DHT22;47005;52.292;13.452;2023-02-25T14:38:30;4.40;99.90
21612;DHT22;47005;52.292;13.452;2023-02-25T14:43:49;4.30;99.90
21612;DHT22;47005;52.292;13.452;2023-02-25T14:57:42;4.30;99.90
21612;DHT22;47005;52.292;13.452;2023-02-25T15:06:14;4.30;99.90
21612;DHT22;47005;52.292;13.452;2023-02-25T15:17:32;4.30;99.90
21612;DHT22;47005;52.292;13.452;2023-02-25T15:22:34;4.30;99.90
21612;DHT22;47005;52.292;13.452;2023-02-25T15:27:52;4.40;99.90
21612;DHT22;47005;52.292;13.452;2023-02-25T15:30:24;4.30;99.90
21612;DHT22;47005;52.292;13.452;2023-02-25T15:33:11;4.40;99.90
21612;DHT22;47005;52.292;13.452;2023-02-25T15:43:56;4.40;99.90
21612;DHT22;47005;52.292;13.452;2023-02-25T15:49:48;4.40;99.90
21612;DHT22;47005;52.292;13.452;2023-02-25T15:52:00;4.40;99.90
21612;DHT22;47005;52.292;13.452;2023-02-25T16:05:20;4.40;99.90
21612;DHT22;47005;52.292;13.452;2023-02-25T16:07:50;4.30;99.90
21612;DHT22;47005;52.292;13.452;2023-02-25T16:10:37;4.30;99.90
21612;DHT22;47005;52.292;13.452;2023-02-25T16:13:12;4.30;99.90
21612;DHT22;47005;52.292;13.452;2023-02-25T16:15:46;4.30;99.90
21612;DHT22;47005;52.292;13.452;2023-02-25T16:18:28;4.20;99.90
21612;DHT22;47005;52.292;13.452;2023-02-25T16:21:10;4.30;99.90
21612;DHT22;47005;52.292;13.452;2023-02-25T16:23:39;4.30;99.90
21612;DHT22;47005;52.292;13.452;2023-02-25T16:26:43;4.30;99.90
21612;DHT22;47005;52.292;13.452;2023-02-25T16:29:39;4.30;99.90
21612;DHT22;47005;52.292;13.452;2023-02-25T16:34:56;4.30;99.90
21612;DHT22;47005;52.292;13.452;2023-02-25T16:37:47;4.30;99.90
21612;DHT22;47005;52.292;13.452;2023-02-25T16:40:35;4.30;99.90
21612;DHT22;47005;52.292;13.452;2023-02-25T16:43:02;4.20;99.90
21612;DHT22;47005;52.292;13.452;2023-02-25T16:45:31;4.10;99.90
21612;DHT22;47005;52.292;13.452;2023-02-25T16:48:16;4.10;99.90
21612;DHT22;47005;52.292;13.452;2023-02-25T16:50:45;4.00;99.90
21612;DHT22;47005;52.292;13.452;2023-02-25T16:53:18;4.00;99.90
21612;DHT22;47005;52.292;13.452;2023-02-25T16:55:46;4.10;99.90
21612;DHT22;47005;52.292;13.452;2023-02-25T17:00:58;3.90;99.90
21612;DHT22;47005;52.292;13.452;2023-02-25T17:03:27;3.90;99.90
21612;DHT22;47005;52.292;13.452;2023-02-25T17:08:25;3.90;99.90
21612;DHT22;47005;52.292;13.452;2023-02-25T17:10:52;3.90;99.90
21612;DHT22;47005;52.292;13.452;2023-02-25T17:15:52;3.90;99.90
21612;DHT22;47005;52.292;13.452;2023-02-25T17:21:03;3.90;99.90
21612;DHT22;47005;52.292;13.452;2023-02-25T17:23:30;3.80;99.90
21612;DHT22;47005;52.292;13.452;2023-02-25T17:26:01;3.90;99.90
21612;DHT22;47005;52.292;13.452;2023-02-25T17:28:29;3.80;99.90
21612;DHT22;47005;52.292;13.452;2023-02-25T17:31:22;3.80;99.90
21612;DHT22;47005;52.292;13.452;2023-02-25T17:36:23;3.80;99.90
21612;DHT22;47005;52.292;13.452;2023-02-25T17:38:55;3.80;99.90
21612;DHT22;47005;52.292;13.452;2023-02-25T17:41:21;3.80;99.90
21612;DHT22;47005;52.292;13.452;2023-02-25T17:43:48;3.80;99.90
21612;DHT22;47005;52.292;13.452;2023-02-25T17:48:50;3.70;99.90
21612;DHT22;47005;52.292;13.452;2023-02-25T17:51:16;3.70;99.90
21612;DHT22;47005;52.292;13.452;2023-02-25T17:53:54;3.70;99.90
21612;DHT22;47005;52.292;13.452;2023-02-25T17:56:29;3.70;99.90
21612;DHT22;47005;52.292;13.452;2023-02-25T18:01:57;3.70;99.90
21612;DHT22;47005;52.292;13.452;2023-02-25T18:06:58;3.70;99.90
21612;DHT22;47005;52.292;13.452;2023-02-25T18:09:50;3.70;99.90
21612;DHT22;47005;52.292;13.452;2023-02-25T18:12:24;3.70;99.90
21612;DHT22;47005;52.292;13.452;2023-02-25T18:14:54;3.70;99.90
21612;DHT22;47005;52.292;13.452;2023-02-25T18:17:25;3.60;99.90
21612;DHT22;47005;52.292;13.452;2023-02-25T18:19:53;3.60;99.90
21612;DHT22;47005;52.292;13.452;2023-02-25T18:22:35;3.60;99.90
21612;DHT22;47005;52.292;13.452;2023-02-25T18:25:05;3.60;99.90
21612;DHT22;47005;52.292;13.452;2023-02-25T18:27:33;3.60;99.90
21612;DHT22;47005;52.292;13.452;2023-02-25T18:32:36;3.60;99.90
21612;DHT22;47005;52.292;13.452;2023-02-25T18:35:01;3.60;99.90
21612;DHT22;47005;52.292;13.452;2023-02-25T18:37:31;3.50;99.90
21612;DHT22;47005;52.292;13.452;2023-02-25T18:39:57;3.50;99.90
21612;DHT22;47005;52.292;13.452;2023-02-25T18:42:23;3.60;99.90
21612;DHT22;47005;52.292;13.452;2023-02-25T18:44:48;3.70;99.90
21612;DHT22;47005;52.292;13.452;2023-02-25T18:47:14;3.50;99.90
21612;DHT22;47005;52.292;13.452;2023-02-25T18:49:42;3.50;99.90
21612;DHT22;47005;52.292;13.452;2023-02-25T18:52:18;3.50;99.90
21612;DHT22;47005;52.292;13.452;2023-02-25T18:54:44;3.00;99.90
21612;DHT22;47005;52.292;13.452;2023-02-25T18:57:21;3.50;99.90
21612;DHT22;47005;52.292;13.452;2023-02-25T18:59:48;3.40;99.90
21612;DHT22;47005;52.292;13.452;2023-02-25T19:02:32;3.30;99.90
21612;DHT22;47005;52.292;13.452;2023-02-25T19:04:58;3.40;99.90
21612;DHT22;47005;52.292;13.452;2023-02-25T19:07:27;3.40;99.90
21612;DHT22;47005;52.292;13.452;2023-02-25T19:09:54;3.40;99.90
21612;DHT22;47005;52.292;13.452;2023-02-25T19:12:23;3.50;99.90
21612;DHT22;47005;52.292;13.452;2023-02-25T19:15:05;3.50;99.90
21612;DHT22;47005;52.292;13.452;2023-02-25T19:17:31;3.50;99.90
21612;DHT22;47005;52.292;13.452;2023-02-25T19:19:57;3.50;99.90
21612;DHT22;47005;52.292;13.452;2023-02-25T19:22:23;3.50;99.90
21612;DHT22;47005;52.292;13.452;2023-02-25T19:24:50;3.50;99.90
21612;DHT22;47005;52.292;13.452;2023-02-25T19:27:25;3.50;99.90
21612;DHT22;47005;52.292;13.452;2023-02-25T19:29:54;3.50;99.90
21612;DHT22;47005;52.292;13.452;2023-02-25T19:32:20;3.50;99.90
21612;DHT22;47005;52.292;13.452;2023-02-25T19:34:48;3.50;99.90
21612;DHT22;47005;52.292;13.452;2023-02-25T19:37:16;3.50;99.90
21612;DHT22;47005;52.292;13.452;2023-02-25T19:39:42;3.50;99.90
21612;DHT22;47005;52.292;13.452;2023-02-25T19:42:09;3.50;99.90
21612;DHT22;47005;52.292;13.452;2023-02-25T19:44:36;3.50;99.90
21612;DHT22;47005;52.292;13.452;2023-02-25T19:47:02;3.60;99.90
21612;DHT22;47005;52.292;13.452;2023-02-25T19:49:28;3.40;99.90
21612;DHT22;47005;52.292;13.452;2023-02-25T19:51:54;3.40;99.90
21612;DHT22;47005;52.292;13.452;2023-02-25T19:54:21;3.40;99.90
21612;DHT22;47005;52.292;13.452;2023-02-25T19:56:47;3.40;99.90
21612;DHT22;47005;52.292;13.452;2023-02-25T19:59:13;3.40;99.90
21612;DHT22;47005;52.292;13.452;2023-02-25T20:01:39;3.40;99.90
21612;DHT22;47005;52.292;13.452;2023-02-25T20:04:06;3.30;99.90
21612;DHT22;47005;52.292;13.452;2023-02-25T20:06:32;3.40;99.90
21612;DHT22;47005;52.292;13.452;2023-02-25T20:09:08;3.40;99.90
21612;DHT22;47005;52.292;13.452;2023-02-25T20:11:34;3.40;99.90
21612;DHT22;47005;52.292;13.452;2023-02-25T20:14:01;3.40;99.90
21612;DHT22;47005;52.292;13.452;2023-02-25T20:16:27;3.50;99.90
21612;DHT22;47005;52.292;13.452;2023-02-25T20:18:53;3.40;99.90
21612;DHT22;47005;52.292;13.452;2023-02-25T20:21:22;3.40;99.90
21612;DHT22;47005;52.292;13.452;2023-02-25T20:23:48;3.40;99.90
21612;DHT22;47005;52.292;13.452;2023-02-25T20:26:14;3.40;99.90